KPSM/PSM METAR and TAF weather

Enter ICAO airport designator
Station Type Date Time Source
KPSM METAR 2018/12/10 07:56 UTC NOAA

KPSM 100756Z 28005KT 10SM SCT250 M04/M09 A3005 RMK AO2A SLP179 T10451092


Station Type Date Time Source
KPSM Decoded METAR 2018/12/10 07:56 UTC NOAA

Pease Air Force Base / Portsmouth, NH, United States (KPSM) 43-05N 070-49W
Dec 10, 2018 - 02:56 AM EST / 2018.12.10 0756 UTC
Wind: from the W (280 degrees) at 6 MPH (5 KT):0
Visibility: 10 mile(s):0
Sky conditions: partly cloudy
Temperature: 23.9 F (-4.5 C)
Windchill: 15 F (-9 C):1
Dew Point: 15.4 F (-9.2 C)
Relative Humidity: 69%
Pressure (altimeter): 30.05 in. Hg (1017 hPa)
ob: KPSM 100756Z 28005KT 10SM SCT250 M04/M09 A3005 RMK AO2A SLP179 T10451092
cycle: 8

Station Type Date Time Source
KPSM TAF 2018/12/10 06:24 UTC NOAA

TAF KPSM 100520Z 1006/1106 23004KT P6SM SCT250
FM101400 32009KT P6SM FEW250


Example: see airport list